»·PEaware :: NDL500 KHOU-KDAL

NDL500 :: KHOU-KDAL

FLIGHT INFORMATION

Flight Status: Arrived
Operator: Unknown
More flights by this operator :: More flights under this callsign
Pilot: Andrew J. (13363)
Aircraft: DASSAULT AVIATION FALCON 50
(FA50)
More flights by this aircraft type
Origin: KHOU Hobby
United States
Destination: KDAL Dallas Love
United States
More flights between these airports :: More routes between these airports
Route: WYLSN7 MAJKK REDDN4
File this flight plan on PilotEdge
Remarks:
Altitude:
(Current/Filed)
32,000ft
Speed:
(Current/Filed)
460kts
Departed: 20-Nov-19 09:45 PM
Arrived: 20-Nov-19 10:27 PM
Distance/Time
Traveled:
209nm/0:42
Distance/Time
To Go:
Arrived

Flight Plot

Page will automatically refresh every two minutes.

Flight plan parsing failed; only flown route is shown


Map Options




Map Legend


Flown Route
Filed Route
Departure Airport
Arrival Airport
Navaid (VOR, NDB)
Fix

Horizontal Profiles

Position Reports

Time Latitude Longitude Heading Altitude Ground
Speed
20-Nov-19 21:20 29.656935 -95.271297 204 48ft 0kts
20-Nov-19 21:21 29.656935 -95.271297 204 48ft 0kts
20-Nov-19 21:22 29.656935 -95.271297 204 48ft 0kts
20-Nov-19 21:23 29.656935 -95.271297 204 48ft 0kts
20-Nov-19 21:24 29.656935 -95.271297 204 48ft 0kts
20-Nov-19 21:25 29.656935 -95.271297 204 48ft 0kts
20-Nov-19 21:26 29.656935 -95.271297 204 48ft 0kts
20-Nov-19 21:27 29.656935 -95.271297 204 48ft 0kts
20-Nov-19 21:27 29.656935 -95.271297 204 48ft 0kts
20-Nov-19 21:29 29.656935 -95.271297 204 48ft 0kts
20-Nov-19 21:29 29.656935 -95.271297 204 48ft 0kts
20-Nov-19 21:30 29.656935 -95.271297 204 48ft 0kts
20-Nov-19 21:31 29.656935 -95.271297 204 48ft 0kts
20-Nov-19 21:32 29.656935 -95.271297 204 48ft 0kts
20-Nov-19 21:33 29.656935 -95.271297 204 48ft 0kts
20-Nov-19 21:34 29.656935 -95.271297 204 48ft 0kts
20-Nov-19 21:35 29.656935 -95.271297 204 48ft 0kts
20-Nov-19 21:36 29.656935 -95.271297 204 48ft 0kts
20-Nov-19 21:37 29.656935 -95.271297 204 48ft 0kts
20-Nov-19 21:38 29.656935 -95.271297 204 48ft 0kts
20-Nov-19 21:39 29.656935 -95.271297 204 48ft 0kts
20-Nov-19 21:40 29.656934 -95.271297 204 48ft 0kts
20-Nov-19 21:41 29.654562 -95.271885 175 48ft 22kts
20-Nov-19 21:42 29.650984 -95.277272 269 48ft 31kts
20-Nov-19 21:43 29.652393 -95.283970 236 48ft 11kts
20-Nov-19 21:44 29.646054 -95.279736 134 48ft 109kts
20-Nov-19 21:45 29.622979 -95.246892 126 2128ft 162kts
20-Nov-19 21:46 29.613293 -95.188838 37 5524ft 240kts
20-Nov-19 21:47 29.673072 -95.213909 322 10476ft 259kts
20-Nov-19 21:48 29.742858 -95.234581 352 14933ft 276kts
20-Nov-19 21:49 29.820608 -95.246551 352 18754ft 292kts
20-Nov-19 21:50 29.902753 -95.259214 352 21881ft 305kts
20-Nov-19 21:51 29.988783 -95.272502 352 24082ft 318kts
20-Nov-19 21:52 30.078033 -95.286311 352 26105ft 329kts
20-Nov-19 21:53 30.169449 -95.300485 352 28107ft 333kts
20-Nov-19 21:54 30.262637 -95.314958 352 29698ft 344kts
20-Nov-19 21:55 30.359032 -95.318804 2 31212ft 350kts
20-Nov-19 21:56 30.457845 -95.312895 2 32315ft 365kts
20-Nov-19 21:57 30.563586 -95.330811 349 32277ft 406kts
20-Nov-19 21:58 30.679483 -95.357233 348 32082ft 440kts
20-Nov-19 21:59 30.801762 -95.386801 348 32076ft 459kts
20-Nov-19 22:00 30.928549 -95.417540 348 32075ft 472kts
20-Nov-19 22:01 31.058266 -95.449074 348 32074ft 479kts
20-Nov-19 22:02 31.186509 -95.480333 348 32077ft 483kts
20-Nov-19 22:03 31.318416 -95.512579 348 32086ft 485kts
20-Nov-19 22:04 31.450623 -95.544990 348 32091ft 486kts
20-Nov-19 22:05 31.577848 -95.596668 333 32092ft 486kts
20-Nov-19 22:06 31.687265 -95.660917 333 32092ft 487kts
20-Nov-19 22:07 31.805157 -95.730516 327 32091ft 464kts
20-Nov-19 22:08 31.918094 -95.797776 321 31374ft 455kts
20-Nov-19 22:09 32.024535 -95.873709 308 29724ft 435kts
20-Nov-19 22:10 32.109522 -95.974581 307 27992ft 434kts
20-Nov-19 22:11 32.194630 -96.076525 311 26081ft 435kts
20-Nov-19 22:12 32.279182 -96.177891 315 24066ft 433kts
20-Nov-19 22:13 32.364248 -96.280182 314 22051ft 437kts
20-Nov-19 22:14 32.452663 -96.379597 323 19987ft 439kts
20-Nov-19 22:15 32.554441 -96.460550 326 17876ft 438kts
20-Nov-19 22:16 32.656888 -96.538634 327 15769ft 435kts
20-Nov-19 22:17 32.748202 -96.592630 342 12936ft 311kts
20-Nov-19 22:18 32.823957 -96.621232 342 9882ft 265kts
20-Nov-19 22:19 32.891358 -96.647440 342 6873ft 249kts
20-Nov-19 22:20 32.944578 -96.694680 312 4905ft 247kts
20-Nov-19 22:21 32.984296 -96.762600 302 3408ft 244kts
20-Nov-19 22:22 32.977219 -96.828787 222 3003ft 200kts
20-Nov-19 22:23 32.928824 -96.861010 202 2424ft 201kts
20-Nov-19 22:24 32.888450 -96.875121 176 1553ft 117kts
20-Nov-19 22:25 32.861227 -96.861382 136 614ft 101kts
20-Nov-19 22:26 32.848031 -96.845336 52 491ft 18kts
20-Nov-19 22:27 32.849836 -96.846358 315 494ft 7kts
20-Nov-19 22:28 32.853012 -96.850029 315 489ft 18kts
20-Nov-19 22:29 32.855067 -96.850953 11 487ft 4kts
20-Nov-19 22:30 32.855217 -96.850381 179 488ft 0kts
20-Nov-19 22:31 32.855217 -96.850381 179 488ft 0kts
20-Nov-19 22:32 32.855217 -96.850381 179 488ft 0kts
20-Nov-19 22:33 32.855217 -96.850381 179 488ft 0kts
20-Nov-19 22:34 32.855217 -96.850381 179 488ft 0kts
20-Nov-19 22:35 32.855217 -96.850381 179 488ft 0kts

Navigation Log

Ident Type
Flight plan parsing failed, navigation log unavailable